sensor_id;sensor_type;location;lat;lon;timestamp;pressure;altitude;pressure_sealevel;temperature;humidity
7532;BME280;3807;49.030;8.714;2024-01-10T00:01:27;100290.00;;;-2.65;62.48
7532;BME280;3807;49.030;8.714;2024-01-10T00:03:54;100279.53;;;-2.55;62.42
7532;BME280;3807;49.030;8.714;2024-01-10T00:06:19;100283.00;;;-2.51;62.53
7532;BME280;3807;49.030;8.714;2024-01-10T00:08:45;100285.50;;;-2.51;62.45
7532;BME280;3807;49.030;8.714;2024-01-10T00:11:10;100268.72;;;-2.55;61.98
7532;BME280;3807;49.030;8.714;2024-01-10T00:13:36;100273.91;;;-2.51;62.12
7532;BME280;3807;49.030;8.714;2024-01-10T00:16:01;100274.16;;;-2.43;62.15
7532;BME280;3807;49.030;8.714;2024-01-10T00:18:27;100263.91;;;-2.51;62.32
7532;BME280;3807;49.030;8.714;2024-01-10T00:20:52;100271.53;;;-2.46;62.34
7532;BME280;3807;49.030;8.714;2024-01-10T00:23:21;100267.38;;;-2.47;62.30
7532;BME280;3807;49.030;8.714;2024-01-10T00:25:47;100263.69;;;-2.57;62.72
7532;BME280;3807;49.030;8.714;2024-01-10T00:28:12;100264.69;;;-2.52;62.31
7532;BME280;3807;49.030;8.714;2024-01-10T00:30:38;100264.69;;;-2.52;62.34
7532;BME280;3807;49.030;8.714;2024-01-10T00:33:04;100263.91;;;-2.51;62.36
7532;BME280;3807;49.030;8.714;2024-01-10T00:35:30;100264.53;;;-2.56;62.48
7532;BME280;3807;49.030;8.714;2024-01-10T00:37:55;100252.50;;;-2.68;62.51
7532;BME280;3807;49.030;8.714;2024-01-10T00:40:21;100261.56;;;-2.70;62.53
7532;BME280;3807;49.030;8.714;2024-01-10T00:42:47;100259.31;;;-2.64;62.63
7532;BME280;3807;49.030;8.714;2024-01-10T00:45:12;100256.84;;;-2.63;61.86
7532;BME280;3807;49.030;8.714;2024-01-10T00:47:38;100261.69;;;-2.43;61.73
7532;BME280;3807;49.030;8.714;2024-01-10T00:50:03;100260.66;;;-2.72;62.12
7532;BME280;3807;49.030;8.714;2024-01-10T00:52:29;100260.78;;;-2.45;61.90
7532;BME280;3807;49.030;8.714;2024-01-10T00:54:54;100259.47;;;-2.34;61.42
7532;BME280;3807;49.030;8.714;2024-01-10T00:57:19;100264.19;;;-2.43;62.06
7532;BME280;3807;49.030;8.714;2024-01-10T00:59:45;100269.09;;;-2.45;61.48
7532;BME280;3807;49.030;8.714;2024-01-10T01:02:10;100271.22;;;-2.31;61.46
7532;BME280;3807;49.030;8.714;2024-01-10T01:04:35;100259.47;;;-2.34;61.23
7532;BME280;3807;49.030;8.714;2024-01-10T01:07:01;100266.22;;;-2.31;61.55
7532;BME280;3807;49.030;8.714;2024-01-10T01:09:26;100261.81;;;-2.38;61.01
7532;BME280;3807;49.030;8.714;2024-01-10T01:11:52;100268.69;;;-2.33;61.14
7532;BME280;3807;49.030;8.714;2024-01-10T01:14:17;100267.00;;;-2.08;60.75
7532;BME280;3807;49.030;8.714;2024-01-10T01:16:43;100271.34;;;-2.52;61.78
7532;BME280;3807;49.030;8.714;2024-01-10T01:19:08;100269.75;;;-2.50;61.75
7532;BME280;3807;49.030;8.714;2024-01-10T01:21:33;100264.56;;;-2.31;61.42
7532;BME280;3807;49.030;8.714;2024-01-10T01:23:59;100269.78;;;-2.49;61.75
7532;BME280;3807;49.030;8.714;2024-01-10T01:26:24;100264.28;;;-2.40;61.40
7532;BME280;3807;49.030;8.714;2024-01-10T01:28:49;100270.13;;;-2.40;61.88
7532;BME280;3807;49.030;8.714;2024-01-10T01:31:15;100270.50;;;-2.27;61.23
7532;BME280;3807;49.030;8.714;2024-01-10T01:33:40;100268.47;;;-2.39;61.94
7532;BME280;3807;49.030;8.714;2024-01-10T01:36:06;100266.97;;;-2.34;61.88
7532;BME280;3807;49.030;8.714;2024-01-10T01:38:32;100265.34;;;-2.33;61.96
7532;BME280;3807;49.030;8.714;2024-01-10T01:40:57;100265.38;;;-2.32;61.45
7532;BME280;3807;49.030;8.714;2024-01-10T01:43:25;100261.09;;;-2.36;61.73
7532;BME280;3807;49.030;8.714;2024-01-10T01:45:53;100260.03;;;-2.43;61.27
7532;BME280;3807;49.030;8.714;2024-01-10T01:48:20;100259.19;;;-2.43;62.08
7532;BME280;3807;49.030;8.714;2024-01-10T01:50:47;100246.94;;;-2.11;60.95
7532;BME280;3807;49.030;8.714;2024-01-10T01:53:14;100253.47;;;-2.15;60.97
7532;BME280;3807;49.030;8.714;2024-01-10T01:55:42;100240.56;;;-2.27;61.52
7532;BME280;3807;49.030;8.714;2024-01-10T01:58:09;100249.34;;;-2.38;61.59
7532;BME280;3807;49.030;8.714;2024-01-10T02:00:34;100249.50;;;-2.34;61.53
7532;BME280;3807;49.030;8.714;2024-01-10T02:03:01;100249.78;;;-2.26;61.38
7532;BME280;3807;49.030;8.714;2024-01-10T02:05:26;100247.53;;;-2.19;61.09
7532;BME280;3807;49.030;8.714;2024-01-10T02:07:52;100246.97;;;-2.10;60.97
7532;BME280;3807;49.030;8.714;2024-01-10T02:10:19;100244.97;;;-2.20;60.69
7532;BME280;3807;49.030;8.714;2024-01-10T02:12:44;100238.78;;;-2.31;61.32
7532;BME280;3807;49.030;8.714;2024-01-10T02:15:10;100241.03;;;-2.13;61.08
7532;BME280;3807;49.030;8.714;2024-01-10T02:17:36;100239.22;;;-2.18;61.26
7532;BME280;3807;49.030;8.714;2024-01-10T02:22:34;100233.19;;;-2.24;60.92
7532;BME280;3807;49.030;8.714;2024-01-10T02:24:59;100232.09;;;-2.32;61.42
7532;BME280;3807;49.030;8.714;2024-01-10T02:27:25;100230.31;;;-2.11;61.05
7532;BME280;3807;49.030;8.714;2024-01-10T02:29:51;100230.53;;;-2.03;60.90
7532;BME280;3807;49.030;8.714;2024-01-10T02:32:17;100232.34;;;-1.99;59.72
7532;BME280;3807;49.030;8.714;2024-01-10T02:34:42;100232.09;;;-2.07;60.56
7532;BME280;3807;49.030;8.714;2024-01-10T02:37:08;100224.69;;;-2.05;60.52
7532;BME280;3807;49.030;8.714;2024-01-10T02:39:33;100230.44;;;-2.06;60.01
7532;BME280;3807;49.030;8.714;2024-01-10T02:41:58;100226.22;;;-2.09;60.55
7532;BME280;3807;49.030;8.714;2024-01-10T02:44:24;100220.22;;;-2.14;60.62
7532;BME280;3807;49.030;8.714;2024-01-10T02:46:49;100224.56;;;-2.08;60.10
7532;BME280;3807;49.030;8.714;2024-01-10T02:49:14;100216.66;;;-2.22;60.20
7532;BME280;3807;49.030;8.714;2024-01-10T02:51:40;100222.91;;;-2.08;60.17
7532;BME280;3807;49.030;8.714;2024-01-10T02:54:05;100219.69;;;-2.05;60.31
7532;BME280;3807;49.030;8.714;2024-01-10T02:56:30;100218.13;;;-2.02;60.14
7532;BME280;3807;49.030;8.714;2024-01-10T02:58:56;100215.47;;;-2.06;60.44
7532;BME280;3807;49.030;8.714;2024-01-10T03:01:21;100217.81;;;-2.11;60.29
7532;BME280;3807;49.030;8.714;2024-01-10T03:03:46;100215.22;;;-2.14;60.37
7532;BME280;3807;49.030;8.714;2024-01-10T03:06:12;100216.75;;;-2.19;60.96
7532;BME280;3807;49.030;8.714;2024-01-10T03:08:37;100217.94;;;-2.08;60.97
7532;BME280;3807;49.030;8.714;2024-01-10T03:11:03;100210.81;;;-1.96;60.52
7532;BME280;3807;49.030;8.714;2024-01-10T03:13:28;100214.94;;;-1.98;60.29
7532;BME280;3807;49.030;8.714;2024-01-10T03:15:53;100217.22;;;-2.04;60.44
7532;BME280;3807;49.030;8.714;2024-01-10T03:18:19;100209.34;;;-1.89;60.53
7532;BME280;3807;49.030;8.714;2024-01-10T03:20:44;100211.19;;;-2.10;61.04
7532;BME280;3807;49.030;8.714;2024-01-10T03:23:09;100206.88;;;-2.16;60.74
7532;BME280;3807;49.030;8.714;2024-01-10T03:25:35;100209.03;;;-2.00;60.45
7532;BME280;3807;49.030;8.714;2024-01-10T03:28:00;100208.59;;;-1.88;60.21
7532;BME280;3807;49.030;8.714;2024-01-10T03:30:25;100213.47;;;-2.17;60.39
7532;BME280;3807;49.030;8.714;2024-01-10T03:32:51;100202.81;;;-1.85;60.33
7532;BME280;3807;49.030;8.714;2024-01-10T03:35:16;100197.59;;;-1.93;60.47
7532;BME280;3807;49.030;8.714;2024-01-10T03:37:41;100205.56;;;-2.05;61.27
7532;BME280;3807;49.030;8.714;2024-01-10T03:40:07;100204.75;;;-2.04;60.29
7532;BME280;3807;49.030;8.714;2024-01-10T03:42:33;100208.16;;;-2.02;60.61
7532;BME280;3807;49.030;8.714;2024-01-10T03:44:58;100205.25;;;-2.40;61.05
7532;BME280;3807;49.030;8.714;2024-01-10T03:47:24;100206.88;;;-2.16;61.19
7532;BME280;3807;49.030;8.714;2024-01-10T03:49:49;100206.28;;;-2.07;60.94
7532;BME280;3807;49.030;8.714;2024-01-10T03:52:14;100212.28;;;-2.28;60.66
7532;BME280;3807;49.030;8.714;2024-01-10T03:54:40;100210.34;;;-2.36;60.57
7532;BME280;3807;49.030;8.714;2024-01-10T03:57:06;100212.69;;;-2.16;60.07
7532;BME280;3807;49.030;8.714;2024-01-10T03:59:31;100215.75;;;-1.99;60.49
7532;BME280;3807;49.030;8.714;2024-01-10T04:01:58;100214.75;;;-2.29;59.94
7532;BME280;3807;49.030;8.714;2024-01-10T04:04:25;100212.69;;;-2.16;60.64
7532;BME280;3807;49.030;8.714;2024-01-10T04:06:52;100205.13;;;-2.19;60.93
7532;BME280;3807;49.030;8.714;2024-01-10T04:09:17;100213.25;;;-1.99;60.29
7532;BME280;3807;49.030;8.714;2024-01-10T04:11:42;100214.88;;;-2.25;61.04
7532;BME280;3807;49.030;8.714;2024-01-10T04:14:08;100217.00;;;-2.11;61.33
7532;BME280;3807;49.030;8.714;2024-01-10T04:16:33;100222.63;;;-2.17;60.74
7532;BME280;3807;49.030;8.714;2024-01-10T04:18:59;100221.72;;;-2.19;61.46
7532;BME280;3807;49.030;8.714;2024-01-10T04:21:24;100219.91;;;-2.23;61.60
7532;BME280;3807;49.030;8.714;2024-01-10T04:23:49;100217.53;;;-2.20;61.59
7532;BME280;3807;49.030;8.714;2024-01-10T04:26:17;100222.94;;;-2.33;62.21
7532;BME280;3807;49.030;8.714;2024-01-10T04:28:42;100224.06;;;-2.24;61.67
7532;BME280;3807;49.030;8.714;2024-01-10T04:31:08;100215.94;;;-2.44;62.07
7532;BME280;3807;49.030;8.714;2024-01-10T04:33:34;100221.22;;;-2.09;61.17
7532;BME280;3807;49.030;8.714;2024-01-10T04:35:59;100218.03;;;-2.05;60.91
7532;BME280;3807;49.030;8.714;2024-01-10T04:38:25;100216.19;;;-2.10;61.56
7532;BME280;3807;49.030;8.714;2024-01-10T04:40:52;100213.69;;;-2.10;61.31
7532;BME280;3807;49.030;8.714;2024-01-10T04:43:17;100225.69;;;-2.26;61.58
7532;BME280;3807;49.030;8.714;2024-01-10T04:45:43;100216.03;;;-2.15;61.58
7532;BME280;3807;49.030;8.714;2024-01-10T04:48:08;100212.97;;;-2.33;62.13
7532;BME280;3807;49.030;8.714;2024-01-10T04:50:34;100212.84;;;-2.11;61.25
7532;BME280;3807;49.030;8.714;2024-01-10T04:53:00;100214.44;;;-2.38;62.23
7532;BME280;3807;49.030;8.714;2024-01-10T04:55:25;100212.75;;;-2.14;61.77
7532;BME280;3807;49.030;8.714;2024-01-10T04:57:51;100216.03;;;-2.15;61.64
7532;BME280;3807;49.030;8.714;2024-01-10T05:00:16;100217.25;;;-2.29;62.10
7532;BME280;3807;49.030;8.714;2024-01-10T05:02:41;100211.31;;;-2.33;62.27
7532;BME280;3807;49.030;8.714;2024-01-10T05:05:07;100212.00;;;-2.37;62.40
7532;BME280;3807;49.030;8.714;2024-01-10T05:07:32;100218.19;;;-2.26;62.08
7532;BME280;3807;49.030;8.714;2024-01-10T05:09:58;100224.03;;;-2.25;62.28
7532;BME280;3807;49.030;8.714;2024-01-10T05:12:23;100222.56;;;-1.93;61.36
7532;BME280;3807;49.030;8.714;2024-01-10T05:14:49;100221.84;;;-2.16;61.77
7532;BME280;3807;49.030;8.714;2024-01-10T05:17:14;100226.84;;;-2.16;62.04
7532;BME280;3807;49.030;8.714;2024-01-10T05:19:39;100220.94;;;-2.18;61.64
7532;BME280;3807;49.030;8.714;2024-01-10T05:22:05;100222.66;;;-1.90;61.39
7532;BME280;3807;49.030;8.714;2024-01-10T05:24:31;100216.06;;;-1.88;60.87
7532;BME280;3807;49.030;8.714;2024-01-10T05:26:56;100215.56;;;-2.03;61.08
7532;BME280;3807;49.030;8.714;2024-01-10T05:29:22;100215.13;;;-2.17;61.76
7532;BME280;3807;49.030;8.714;2024-01-10T05:31:49;100214.53;;;-2.10;61.86
7532;BME280;3807;49.030;8.714;2024-01-10T05:34:14;100213.19;;;-2.00;61.47
7532;BME280;3807;49.030;8.714;2024-01-10T05:36:40;100211.56;;;-2.25;61.94
7532;BME280;3807;49.030;8.714;2024-01-10T05:39:05;100220.09;;;-2.19;61.99
7532;BME280;3807;49.030;8.714;2024-01-10T05:41:30;100222.63;;;-2.17;62.09
7532;BME280;3807;49.030;8.714;2024-01-10T05:43:56;100222.81;;;-2.11;61.98
7532;BME280;3807;49.030;8.714;2024-01-10T05:46:21;100218.28;;;-2.23;62.14
7532;BME280;3807;49.030;8.714;2024-01-10T05:48:47;100206.25;;;-2.09;61.55
7532;BME280;3807;49.030;8.714;2024-01-10T05:51:13;100210.47;;;-2.06;61.49
7532;BME280;3807;49.030;8.714;2024-01-10T05:53:39;100218.91;;;-2.03;61.47
7532;BME280;3807;49.030;8.714;2024-01-10T05:56:06;100224.16;;;-1.95;61.47
7532;BME280;3807;49.030;8.714;2024-01-10T05:58:31;100216.16;;;-2.12;61.58
7532;BME280;3807;49.030;8.714;2024-01-10T06:00:57;100225.06;;;-2.19;62.40
7532;BME280;3807;49.030;8.714;2024-01-10T06:03:22;100223.22;;;-1.99;61.10
7532;BME280;3807;49.030;8.714;2024-01-10T06:05:50;100221.53;;;-1.73;60.92
7532;BME280;3807;49.030;8.714;2024-01-10T06:08:15;100223.28;;;-1.96;61.82
7532;BME280;3807;49.030;8.714;2024-01-10T06:10:41;100223.56;;;-2.13;62.17
7532;BME280;3807;49.030;8.714;2024-01-10T06:13:06;100231.47;;;-2.01;61.29
7532;BME280;3807;49.030;8.714;2024-01-10T06:15:32;100218.97;;;-2.27;62.22
7532;BME280;3807;49.030;8.714;2024-01-10T06:17:58;100215.81;;;-1.96;61.71
7532;BME280;3807;49.030;8.714;2024-01-10T06:20:23;100225.53;;;-2.05;61.72
7532;BME280;3807;49.030;8.714;2024-01-10T06:22:49;100214.94;;;-1.98;61.31
7532;BME280;3807;49.030;8.714;2024-01-10T06:25:15;100213.06;;;-1.78;60.94
7532;BME280;3807;49.030;8.714;2024-01-10T06:27:40;100212.69;;;-2.16;62.32
7532;BME280;3807;49.030;8.714;2024-01-10T06:30:07;100211.78;;;-2.18;61.77
7532;BME280;3807;49.030;8.714;2024-01-10T06:32:34;100218.56;;;-2.13;61.96
7532;BME280;3807;49.030;8.714;2024-01-10T06:35:00;100220.78;;;-2.23;61.87
7532;BME280;3807;49.030;8.714;2024-01-10T06:37:27;100222.22;;;-2.29;62.43
7532;BME280;3807;49.030;8.714;2024-01-10T06:39:53;100230.25;;;-2.38;62.89
7532;BME280;3807;49.030;8.714;2024-01-10T06:42:18;100225.78;;;-2.23;62.70
7532;BME280;3807;49.030;8.714;2024-01-10T06:44:44;100229.47;;;-2.37;62.92
7532;BME280;3807;49.030;8.714;2024-01-10T06:47:11;100231.97;;;-2.37;63.00
7532;BME280;3807;49.030;8.714;2024-01-10T06:49:36;100226.91;;;-2.38;62.80
7532;BME280;3807;49.030;8.714;2024-01-10T06:52:01;100236.28;;;-2.31;62.66
7532;BME280;3807;49.030;8.714;2024-01-10T06:54:27;100233.75;;;-2.33;62.42
7532;BME280;3807;49.030;8.714;2024-01-10T06:56:52;100233.09;;;-2.02;62.11
7532;BME280;3807;49.030;8.714;2024-01-10T06:59:18;100231.38;;;-2.30;62.90
7532;BME280;3807;49.030;8.714;2024-01-10T07:01:43;100227.66;;;-2.16;62.21
7532;BME280;3807;49.030;8.714;2024-01-10T07:04:08;100227.66;;;-2.16;62.33
7532;BME280;3807;49.030;8.714;2024-01-10T07:06:34;100227.75;;;-2.38;62.50
7532;BME280;3807;49.030;8.714;2024-01-10T07:08:59;100233.31;;;-2.21;62.30
7532;BME280;3807;49.030;8.714;2024-01-10T07:11:25;100228.06;;;-2.29;62.78
7532;BME280;3807;49.030;8.714;2024-01-10T07:13:53;100231.28;;;-2.31;62.73
7532;BME280;3807;49.030;8.714;2024-01-10T07:16:18;100245.88;;;-2.44;62.84
7532;BME280;3807;49.030;8.714;2024-01-10T07:18:44;100238.28;;;-2.21;62.72
7532;BME280;3807;49.030;8.714;2024-01-10T07:21:11;100252.06;;;-2.32;62.82
7532;BME280;3807;49.030;8.714;2024-01-10T07:23:36;100239.69;;;-2.29;62.60
7532;BME280;3807;49.030;8.714;2024-01-10T07:26:05;100253.94;;;-2.00;61.77
7532;BME280;3807;49.030;8.714;2024-01-10T07:28:30;100252.66;;;-2.40;62.76
7532;BME280;3807;49.030;8.714;2024-01-10T07:30:57;100263.63;;;-2.34;62.77
7532;BME280;3807;49.030;8.714;2024-01-10T07:33:23;100265.28;;;-2.35;63.14
7532;BME280;3807;49.030;8.714;2024-01-10T07:35:48;100272.13;;;-2.29;62.81
7532;BME280;3807;49.030;8.714;2024-01-10T07:38:14;100270.47;;;-2.29;62.86
7532;BME280;3807;49.030;8.714;2024-01-10T07:40:39;100270.22;;;-2.36;63.05
7532;BME280;3807;49.030;8.714;2024-01-10T07:43:04;100278.06;;;-2.26;62.47
7532;BME280;3807;49.030;8.714;2024-01-10T07:45:30;100277.03;;;-2.31;62.86
7532;BME280;3807;49.030;8.714;2024-01-10T07:47:55;100276.91;;;-2.35;62.72
7532;BME280;3807;49.030;8.714;2024-01-10T07:50:20;100279.91;;;-2.20;62.07
7532;BME280;3807;49.030;8.714;2024-01-10T07:52:46;100270.03;;;-2.17;62.11
7532;BME280;3807;49.030;8.714;2024-01-10T07:55:12;100278.09;;;-2.24;62.37
7532;BME280;3807;49.030;8.714;2024-01-10T07:57:37;100277.50;;;-2.17;62.50
7532;BME280;3807;49.030;8.714;2024-01-10T08:00:07;100277.28;;;-2.23;62.27
7532;BME280;3807;49.030;8.714;2024-01-10T08:02:36;100275.81;;;-2.18;62.20
7532;BME280;3807;49.030;8.714;2024-01-10T08:05:02;100270.03;;;-2.17;62.24
7532;BME280;3807;49.030;8.714;2024-01-10T08:07:36;100281.25;;;-2.30;62.38
7532;BME280;3807;49.030;8.714;2024-01-10T08:10:06;100282.94;;;-2.29;62.33
7532;BME280;3807;49.030;8.714;2024-01-10T08:12:32;100287.47;;;-2.43;62.97
7532;BME280;3807;49.030;8.714;2024-01-10T08:14:57;100293.16;;;-2.47;63.08
7532;BME280;3807;49.030;8.714;2024-01-10T08:17:23;100296.50;;;-2.46;63.27
7532;BME280;3807;49.030;8.714;2024-01-10T08:19:48;100291.34;;;-2.51;63.39
7532;BME280;3807;49.030;8.714;2024-01-10T08:22:14;100298.53;;;-2.58;63.27
7532;BME280;3807;49.030;8.714;2024-01-10T08:24:40;100290.31;;;-2.56;63.74
7532;BME280;3807;49.030;8.714;2024-01-10T08:27:05;100296.13;;;-2.57;63.49
7532;BME280;3807;49.030;8.714;2024-01-10T08:29:31;100299.47;;;-2.32;63.06
7532;BME280;3807;49.030;8.714;2024-01-10T08:31:57;100295.69;;;-2.45;63.33
7532;BME280;3807;49.030;8.714;2024-01-10T08:34:23;100293.44;;;-2.37;63.04
7532;BME280;3807;49.030;8.714;2024-01-10T08:36:49;100289.50;;;-2.07;62.23
7532;BME280;3807;49.030;8.714;2024-01-10T08:39:16;100298.34;;;-1.91;61.37
7532;BME280;3807;49.030;8.714;2024-01-10T08:41:41;100291.50;;;-2.22;62.64
7532;BME280;3807;49.030;8.714;2024-01-10T08:44:12;100294.88;;;-2.20;62.88
7532;BME280;3807;49.030;8.714;2024-01-10T08:46:37;100295.66;;;-2.21;62.65
7532;BME280;3807;49.030;8.714;2024-01-10T08:49:03;100296.16;;;-2.06;61.94
7532;BME280;3807;49.030;8.714;2024-01-10T08:51:28;100306.44;;;-1.98;62.32
7532;BME280;3807;49.030;8.714;2024-01-10T08:53:54;100299.69;;;-2.01;62.41
7532;BME280;3807;49.030;8.714;2024-01-10T08:56:20;100301.81;;;-2.11;62.24
7532;BME280;3807;49.030;8.714;2024-01-10T08:58:45;100295.78;;;-2.18;62.55
7532;BME280;3807;49.030;8.714;2024-01-10T09:01:11;100296.69;;;-1.90;61.88
7532;BME280;3807;49.030;8.714;2024-01-10T09:03:36;100305.41;;;-2.03;62.08
7532;BME280;3807;49.030;8.714;2024-01-10T09:06:03;100293.78;;;-2.03;62.17
7532;BME280;3807;49.030;8.714;2024-01-10T09:08:29;100300.38;;;-1.79;61.48
7532;BME280;3807;49.030;8.714;2024-01-10T09:10:55;100300.19;;;-1.58;60.84
7532;BME280;3807;49.030;8.714;2024-01-10T09:13:20;100300.38;;;-1.79;61.05
7532;BME280;3807;49.030;8.714;2024-01-10T09:15:45;100300.16;;;-1.60;60.80
7532;BME280;3807;49.030;8.714;2024-01-10T09:18:11;100294.03;;;-1.70;60.98
7532;BME280;3807;49.030;8.714;2024-01-10T09:20:36;100290.38;;;-1.79;61.22
7532;BME280;3807;49.030;8.714;2024-01-10T09:23:03;100289.47;;;-1.56;60.88
7532;BME280;3807;49.030;8.714;2024-01-10T09:25:28;100300.06;;;-1.63;60.96
7532;BME280;3807;49.030;8.714;2024-01-10T09:27:54;100301.81;;;-1.60;60.85
7532;BME280;3807;49.030;8.714;2024-01-10T09:30:20;100304.59;;;-1.51;60.32
7532;BME280;3807;49.030;8.714;2024-01-10T09:32:45;100304.91;;;-1.40;60.02
7532;BME280;3807;49.030;8.714;2024-01-10T09:35:11;100307.22;;;-1.47;60.31
7532;BME280;3807;49.030;8.714;2024-01-10T09:37:37;100308.41;;;-1.35;60.32
7532;BME280;3807;49.030;8.714;2024-01-10T09:40:05;100302.09;;;-1.24;59.86
7532;BME280;3807;49.030;8.714;2024-01-10T09:42:33;100310.72;;;-1.14;59.83
7532;BME280;3807;49.030;8.714;2024-01-10T09:45:01;100311.88;;;-1.30;60.32
7532;BME280;3807;49.030;8.714;2024-01-10T09:47:27;100307.38;;;-1.42;60.07
7532;BME280;3807;49.030;8.714;2024-01-10T09:49:54;100315.31;;;-1.27;59.98
7532;BME280;3807;49.030;8.714;2024-01-10T09:52:27;100307.63;;;-1.33;60.30
7532;BME280;3807;49.030;8.714;2024-01-10T09:54:57;100310.84;;;-1.10;59.43
7532;BME280;3807;49.030;8.714;2024-01-10T09:57:25;100309.91;;;-1.13;59.59
7532;BME280;3807;49.030;8.714;2024-01-10T09:59:51;100309.50;;;-0.99;59.06
7532;BME280;3807;49.030;8.714;2024-01-10T10:02:18;100311.34;;;-0.93;59.03
7532;BME280;3807;49.030;8.714;2024-01-10T10:04:54;100308.44;;;-1.07;59.50
7532;BME280;3807;49.030;8.714;2024-01-10T10:07:22;100311.22;;;-0.98;59.18
7532;BME280;3807;49.030;8.714;2024-01-10T10:09:47;100311.91;;;-1.02;60.07
7532;BME280;3807;49.030;8.714;2024-01-10T10:12:12;100308.97;;;-0.88;59.22
7532;BME280;3807;49.030;8.714;2024-01-10T10:14:38;100301.44;;;-0.90;59.00
7532;BME280;3807;49.030;8.714;2024-01-10T10:17:16;100309.25;;;-0.78;58.48
7532;BME280;3807;49.030;8.714;2024-01-10T10:19:42;100305.31;;;-1.00;59.38
7532;BME280;3807;49.030;8.714;2024-01-10T10:22:08;100310.66;;;-0.87;59.15
7532;BME280;3807;49.030;8.714;2024-01-10T10:24:34;100315.91;;;-0.78;59.02
7532;BME280;3807;49.030;8.714;2024-01-10T10:26:59;100311.72;;;-0.79;58.88
7532;BME280;3807;49.030;8.714;2024-01-10T10:29:25;100305.47;;;-0.65;58.50
7532;BME280;3807;49.030;8.714;2024-01-10T10:31:51;100303.47;;;-0.77;58.64
7532;BME280;3807;49.030;8.714;2024-01-10T10:34:21;100302.47;;;-0.82;58.95
7532;BME280;3807;49.030;8.714;2024-01-10T10:36:47;100305.13;;;-0.45;58.72
7532;BME280;3807;49.030;8.714;2024-01-10T10:39:16;100306.34;;;-0.63;58.78
7532;BME280;3807;49.030;8.714;2024-01-10T10:41:42;100301.56;;;-0.55;58.78
7532;BME280;3807;49.030;8.714;2024-01-10T10:44:09;100304.19;;;-0.51;58.80
7532;BME280;3807;49.030;8.714;2024-01-10T10:46:35;100296.78;;;-0.46;58.45
7532;BME280;3807;49.030;8.714;2024-01-10T10:49:06;100299.81;;;-0.58;58.35
7532;BME280;3807;49.030;8.714;2024-01-10T10:51:36;100297.59;;;-0.47;58.54
7532;BME280;3807;49.030;8.714;2024-01-10T10:54:06;100291.78;;;-0.46;58.90
7532;BME280;3807;49.030;8.714;2024-01-10T10:56:33;100297.59;;;-0.47;58.15
7532;BME280;3807;49.030;8.714;2024-01-10T10:59:02;100299.66;;;-0.32;58.09
7532;BME280;3807;49.030;8.714;2024-01-10T11:01:28;100300.56;;;-0.30;58.86
7532;BME280;3807;49.030;8.714;2024-01-10T11:03:54;100304.00;;;-0.25;58.35
7532;BME280;3807;49.030;8.714;2024-01-10T11:06:21;100298.25;;;-0.22;58.34
7532;BME280;3807;49.030;8.714;2024-01-10T11:08:50;100300.94;;;-0.15;58.41
7532;BME280;3807;49.030;8.714;2024-01-10T11:25:13;100290.16;;;0.21;57.69
7532;BME280;3807;49.030;8.714;2024-01-10T11:27:39;100290.19;;;0.22;57.35
7532;BME280;3807;49.030;8.714;2024-01-10T11:30:05;100289.44;;;0.27;57.92
7532;BME280;3807;49.030;8.714;2024-01-10T11:32:32;100287.94;;;0.33;57.49
7532;BME280;3807;49.030;8.714;2024-01-10T11:34:59;100297.13;;;0.34;57.79
7532;BME280;3807;49.030;8.714;2024-01-10T11:37:38;100298.19;;;0.42;57.66
7532;BME280;3807;49.030;8.714;2024-01-10T11:40:08;100293.25;;;0.47;57.35
7532;BME280;3807;49.030;8.714;2024-01-10T11:42:41;100300.19;;;0.57;57.56
7532;BME280;3807;49.030;8.714;2024-01-10T11:45:07;100290.41;;;0.69;57.41
7532;BME280;3807;49.030;8.714;2024-01-10T11:47:33;100291.31;;;0.71;57.61
7532;BME280;3807;49.030;8.714;2024-01-10T11:50:02;100291.31;;;0.71;56.97
7532;BME280;3807;49.030;8.714;2024-01-10T11:52:34;100295.66;;;0.80;57.21
7532;BME280;3807;49.030;8.714;2024-01-10T11:55:01;100290.59;;;0.77;57.49
7532;BME280;3807;49.030;8.714;2024-01-10T11:57:28;100289.03;;;0.82;56.94
7532;BME280;3807;49.030;8.714;2024-01-10T11:59:55;100283.41;;;0.92;57.25
7532;BME280;3807;49.030;8.714;2024-01-10T12:02:23;100286.81;;;0.94;56.93
7532;BME280;3807;49.030;8.714;2024-01-10T12:04:55;100290.09;;;0.92;56.64
7532;BME280;3807;49.030;8.714;2024-01-10T12:07:20;100286.94;;;1.02;57.04
7532;BME280;3807;49.030;8.714;2024-01-10T12:09:46;100280.28;;;1.03;56.88
7532;BME280;3807;49.030;8.714;2024-01-10T12:12:13;100279.50;;;1.07;56.74
7532;BME280;3807;49.030;8.714;2024-01-10T12:14:39;100276.31;;;1.14;56.77
7532;BME280;3807;49.030;8.714;2024-01-10T12:17:05;100272.19;;;1.17;57.14
7532;BME280;3807;49.030;8.714;2024-01-10T12:19:33;100284.59;;;1.10;56.13
7532;BME280;3807;49.030;8.714;2024-01-10T12:21:59;100278.88;;;1.15;56.56
7532;BME280;3807;49.030;8.714;2024-01-10T12:24:27;100267.31;;;1.24;56.77
7532;BME280;3807;49.030;8.714;2024-01-10T12:26:55;100261.44;;;1.23;56.31
7532;BME280;3807;49.030;8.714;2024-01-10T12:29:20;100261.47;;;1.25;56.29
7532;BME280;3807;49.030;8.714;2024-01-10T12:31:47;100266.47;;;1.23;56.07
7532;BME280;3807;49.030;8.714;2024-01-10T12:34:12;100264.88;;;1.27;56.19
7532;BME280;3807;49.030;8.714;2024-01-10T12:36:39;100267.38;;;1.27;56.79
7532;BME280;3807;49.030;8.714;2024-01-10T12:39:05;100269.91;;;1.28;56.95
7532;BME280;3807;49.030;8.714;2024-01-10T12:41:32;100265.06;;;1.37;55.78
7532;BME280;3807;49.030;8.714;2024-01-10T12:44:00;100270.09;;;1.37;56.84
7532;BME280;3807;49.030;8.714;2024-01-10T12:46:30;100270.09;;;1.37;57.33
7532;BME280;3807;49.030;8.714;2024-01-10T12:49:02;100265.09;;;1.39;56.88
7532;BME280;3807;49.030;8.714;2024-01-10T12:51:29;100264.44;;;1.48;56.39
7532;BME280;3807;49.030;8.714;2024-01-10T12:53:55;100262.84;;;1.53;56.32
7532;BME280;3807;49.030;8.714;2024-01-10T12:56:21;100272.03;;;1.52;56.22
7532;BME280;3807;49.030;8.714;2024-01-10T12:58:47;100268.81;;;1.59;56.35
7532;BME280;3807;49.030;8.714;2024-01-10T13:01:12;100268.88;;;1.62;56.36
7532;BME280;3807;49.030;8.714;2024-01-10T13:03:38;100264.69;;;1.61;55.73
7532;BME280;3807;49.030;8.714;2024-01-10T13:06:05;100254.72;;;1.66;56.12
7532;BME280;3807;49.030;8.714;2024-01-10T13:08:30;100263.03;;;1.63;56.17
7532;BME280;3807;49.030;8.714;2024-01-10T13:10:57;100259.59;;;1.60;56.35
7532;BME280;3807;49.030;8.714;2024-01-10T13:13:22;100261.34;;;1.62;56.13
7532;BME280;3807;49.030;8.714;2024-01-10T13:15:48;100262.16;;;1.61;56.17
7532;BME280;3807;49.030;8.714;2024-01-10T13:18:14;100253.78;;;1.61;56.19
7532;BME280;3807;49.030;8.714;2024-01-10T13:20:43;100267.31;;;1.69;56.86
7532;BME280;3807;49.030;8.714;2024-01-10T13:23:09;100264.09;;;1.78;55.69